Time;durP1;ratioP1;P1;durP2;ratioP2;P2;SDS_P1;SDS_P2;PMS_P1;PMS_P2;Temp;Humidity;BMP_temperature;BMP_pressure;BME280_temperature;BME280_humidity;BME280_pressure;Samples;Min_cycle;Max_cycle;Signal;HPM_P1;HPM_P2
2021/04/18 00:00:20;;;;;;;53.70;35.78;;;;;;;;;;4973270;28;20486;-56
2021/04/18 00:02:47;;;;;;;56.03;38.83;;;;;;;;;;4974599;28;20027;-55
2021/04/18 00:05:14;;;;;;;48.05;33.10;;;;;;;;;;4974558;28;20501;-53
2021/04/18 00:07:40;;;;;;;61.95;42.10;;;;;;;;;;4974485;28;20058;-55
2021/04/18 00:10:07;;;;;;;49.65;33.85;;;;;;;;;;4974838;28;20038;-56
2021/04/18 00:12:33;;;;;;;50.47;34.63;;;;;;;;;;4974422;28;20082;-56
2021/04/18 00:15:00;;;;;;;58.65;36.22;;;;;;;;;;4974579;28;20038;-55
2021/04/18 00:17:26;;;;;;;74.68;47.78;;;;;;;;;;4975498;28;20023;-58
2021/04/18 00:19:52;;;;;;;45.28;33.08;;;;;;;;;;4975706;28;20158;-58
2021/04/18 00:22:18;;;;;;;59.42;38.33;;;;;;;;;;4975495;28;20073;-57
2021/04/18 00:24:44;;;;;;;62.65;42.25;;;;;;;;;;4974385;28;20039;-57
2021/04/18 00:27:10;;;;;;;48.45;33.28;;;;;;;;;;4974424;28;20073;-57
2021/04/18 00:29:36;;;;;;;48.05;35.90;;;;;;;;;;4974616;28;20031;-56
2021/04/18 00:32:03;;;;;;;55.60;37.67;;;;;;;;;;4974384;28;20170;-59
2021/04/18 00:34:29;;;;;;;53.08;35.13;;;;;;;;;;4974434;28;20027;-59
2021/04/18 00:36:55;;;;;;;58.35;38.90;;;;;;;;;;4974406;28;20557;-56
2021/04/18 00:39:21;;;;;;;52.53;35.75;;;;;;;;;;4974222;28;20027;-55
2021/04/18 00:41:47;;;;;;;77.05;49.35;;;;;;;;;;4974177;28;20031;-57
2021/04/18 00:44:13;;;;;;;71.68;49.15;;;;;;;;;;4957019;28;20023;-54
2021/04/18 00:46:39;;;;;;;56.00;37.83;;;;;;;;;;4974482;28;20398;-55
2021/04/18 00:49:06;;;;;;;60.45;40.42;;;;;;;;;;4974167;28;20049;-55
2021/04/18 00:51:33;;;;;;;45.67;31.08;;;;;;;;;;4973745;28;20055;-55
2021/04/18 00:53:59;;;;;;;41.13;30.25;;;;;;;;;;4974008;28;20501;-56
2021/04/18 00:56:25;;;;;;;49.53;35.42;;;;;;;;;;4973898;28;20033;-56
2021/04/18 00:58:51;;;;;;;63.47;43.35;;;;;;;;;;4974304;28;20019;-54
2021/04/18 01:01:19;;;;;;;46.40;31.75;;;;;;;;;;4974135;28;20071;-52
2021/04/18 01:03:46;;;;;;;64.22;41.38;;;;;;;;;;4973968;28;20487;-53
2021/04/18 01:06:12;;;;;;;64.60;42.70;;;;;;;;;;4973957;28;20074;-54
2021/04/18 01:08:38;;;;;;;63.60;40.97;;;;;;;;;;4973938;28;20030;-56
2021/04/18 01:11:04;;;;;;;66.47;43.55;;;;;;;;;;4974112;28;20035;-54
2021/04/18 01:13:30;;;;;;;48.92;36.65;;;;;;;;;;4977450;28;20538;-55
2021/04/18 01:15:56;;;;;;;53.35;36.90;;;;;;;;;;4977426;28;20027;-53
2021/04/18 01:18:23;;;;;;;56.00;39.10;;;;;;;;;;4977365;28;20109;-53
2021/04/18 01:21:01;;;;;;;65.63;43.72;;;;;;;;;;4977194;28;20085;-54
2021/04/18 01:23:27;;;;;;;69.78;46.78;;;;;;;;;;4977198;28;20110;-51
2021/04/18 01:25:53;;;;;;;48.25;34.95;;;;;;;;;;4977198;28;20030;-54
2021/04/18 01:28:19;;;;;;;50.08;36.30;;;;;;;;;;4977273;28;20031;-53
2021/04/18 01:30:45;;;;;;;47.50;33.78;;;;;;;;;;4976984;28;20030;-53
2021/04/18 01:33:11;;;;;;;49.05;34.40;;;;;;;;;;4977147;28;20471;-53
2021/04/18 01:35:37;;;;;;;48.42;35.22;;;;;;;;;;4977063;28;20031;-53
2021/04/18 01:38:04;;;;;;;49.13;35.97;;;;;;;;;;4977009;28;20035;-52
2021/04/18 01:40:30;;;;;;;60.25;39.92;;;;;;;;;;4977637;28;20030;-53
2021/04/18 01:42:56;;;;;;;50.72;36.03;;;;;;;;;;4976863;28;20463;-53
2021/04/18 01:45:23;;;;;;;56.80;41.70;;;;;;;;;;4977139;28;20036;-55
2021/04/18 01:47:50;;;;;;;79.10;58.50;;;;;;;;;;4977048;28;20394;-54
2021/04/18 01:50:17;;;;;;;61.95;48.58;;;;;;;;;;4976973;28;20019;-53
2021/04/18 01:52:43;;;;;;;52.25;39.60;;;;;;;;;;4976505;28;20061;-54
2021/04/18 01:55:10;;;;;;;48.70;34.25;;;;;;;;;;4976624;28;20023;-53
2021/04/18 01:57:36;;;;;;;37.63;30.30;;;;;;;;;;4976822;28;20026;-54
2021/04/18 02:00:07;;;;;;;41.80;30.42;;;;;;;;;;4976584;28;20612;-52
2021/04/18 02:02:33;;;;;;;60.13;45.35;;;;;;;;;;4975510;28;20038;-56
2021/04/18 02:04:59;;;;;;;46.95;36.42;;;;;;;;;;4976526;28;20490;-56
2021/04/18 02:07:25;;;;;;;46.22;35.70;;;;;;;;;;4976561;28;20050;-55
2021/04/18 02:09:53;;;;;;;41.22;32.42;;;;;;;;;;4976387;28;20030;-55
2021/04/18 02:12:19;;;;;;;41.28;32.00;;;;;;;;;;4976201;28;20487;-54
2021/04/18 02:14:45;;;;;;;36.88;27.98;;;;;;;;;;4976299;28;20037;-53
2021/04/18 02:17:11;;;;;;;35.08;26.65;;;;;;;;;;4976489;28;20073;-53
2021/04/18 02:19:37;;;;;;;40.30;29.77;;;;;;;;;;4976237;28;20035;-53
2021/04/18 02:22:04;;;;;;;40.58;28.42;;;;;;;;;;4975990;28;20043;-53
2021/04/18 02:24:30;;;;;;;38.13;28.55;;;;;;;;;;4975349;28;20022;-53
2021/04/18 02:26:56;;;;;;;35.97;27.17;;;;;;;;;;4976399;28;20035;-53
2021/04/18 02:29:22;;;;;;;33.65;26.77;;;;;;;;;;4976401;28;20344;-55
2021/04/18 02:31:48;;;;;;;46.13;33.22;;;;;;;;;;4976133;28;20399;-55
2021/04/18 02:34:14;;;;;;;45.58;37.38;;;;;;;;;;4976231;28;20026;-52
2021/04/18 02:36:40;;;;;;;39.05;32.13;;;;;;;;;;4976172;28;20023;-54
2021/04/18 02:39:07;;;;;;;36.47;29.23;;;;;;;;;;4975793;28;20463;-52
2021/04/18 02:41:33;;;;;;;35.85;28.63;;;;;;;;;;4975787;28;20037;-54
2021/04/18 02:44:00;;;;;;;33.65;27.10;;;;;;;;;;4975831;28;20018;-55
2021/04/18 02:46:26;;;;;;;32.97;26.25;;;;;;;;;;4975968;28;20031;-54
2021/04/18 02:48:52;;;;;;;36.97;26.25;;;;;;;;;;4974329;28;20038;-55
2021/04/18 02:51:18;;;;;;;36.35;26.65;;;;;;;;;;4975326;28;20051;-55
2021/04/18 02:53:44;;;;;;;36.97;26.60;;;;;;;;;;4974555;28;20624;-54
2021/04/18 02:56:10;;;;;;;33.85;26.95;;;;;;;;;;4975788;28;20031;-55
2021/04/18 02:58:36;;;;;;;34.15;25.95;;;;;;;;;;4975638;28;20106;-54
2021/04/18 03:01:03;;;;;;;32.05;25.63;;;;;;;;;;4975463;28;20387;-54
2021/04/18 03:03:29;;;;;;;32.72;26.00;;;;;;;;;;4975628;28;20023;-54
2021/04/18 03:05:55;;;;;;;34.42;25.52;;;;;;;;;;4958323;28;20478;-54
2021/04/18 03:08:23;;;;;;;31.75;25.08;;;;;;;;;;4975473;28;20027;-55
2021/04/18 03:10:49;;;;;;;31.13;23.75;;;;;;;;;;4975134;28;20035;-53
2021/04/18 03:13:15;;;;;;;32.10;25.65;;;;;;;;;;4958136;28;20459;-54
2021/04/18 03:15:43;;;;;;;33.20;26.25;;;;;;;;;;4975292;28;20019;-55
2021/04/18 03:18:09;;;;;;;35.85;26.58;;;;;;;;;;4975162;28;20034;-55
2021/04/18 03:20:36;;;;;;;30.60;24.73;;;;;;;;;;4975161;28;20042;-57
2021/04/18 03:23:02;;;;;;;34.00;27.50;;;;;;;;;;4975071;28;20106;-55
2021/04/18 03:25:28;;;;;;;35.08;26.25;;;;;;;;;;4975412;28;20383;-54
2021/04/18 03:27:54;;;;;;;32.03;25.83;;;;;;;;;;4975265;28;20054;-55
2021/04/18 03:30:20;;;;;;;34.63;25.98;;;;;;;;;;4975039;28;20026;-51
2021/04/18 03:32:46;;;;;;;33.65;26.80;;;;;;;;;;4975012;28;20088;-55
2021/04/18 03:35:13;;;;;;;31.77;25.20;;;;;;;;;;4974642;28;20023;-53
2021/04/18 03:37:39;;;;;;;33.08;25.17;;;;;;;;;;4974882;28;20049;-53
2021/04/18 03:40:05;;;;;;;33.45;25.83;;;;;;;;;;4974663;28;20098;-54
2021/04/18 03:42:31;;;;;;;31.35;24.38;;;;;;;;;;4974794;28;20086;-54
2021/04/18 03:44:57;;;;;;;32.83;25.38;;;;;;;;;;4974403;28;20026;-54
2021/04/18 03:47:24;;;;;;;32.75;24.88;;;;;;;;;;4974650;28;20624;-54
2021/04/18 03:49:52;;;;;;;31.58;25.08;;;;;;;;;;4974553;28;20027;-54
2021/04/18 03:52:22;;;;;;;36.45;24.73;;;;;;;;;;4974342;28;20043;-54
2021/04/18 03:54:51;;;;;;;32.03;24.65;;;;;;;;;;4974414;28;20052;-54
2021/04/18 03:57:17;;;;;;;37.75;25.35;;;;;;;;;;4974549;28;20105;-54
2021/04/18 03:59:43;;;;;;;35.25;26.20;;;;;;;;;;4957270;28;20042;-54
2021/04/18 04:02:09;;;;;;;44.55;30.42;;;;;;;;;;4974622;28;20042;-55
2021/04/18 04:04:35;;;;;;;42.08;28.33;;;;;;;;;;4974432;28;20514;-54
2021/04/18 04:07:01;;;;;;;44.22;31.25;;;;;;;;;;4974654;28;20030;-54
2021/04/18 04:09:29;;;;;;;45.60;30.85;;;;;;;;;;4974332;28;20069;-54
2021/04/18 04:11:55;;;;;;;40.33;30.35;;;;;;;;;;4974150;28;20043;-52
2021/04/18 04:14:21;;;;;;;40.03;30.75;;;;;;;;;;4957408;28;20031;-56
2021/04/18 04:16:47;;;;;;;55.10;38.03;;;;;;;;;;4974293;28;20125;-55
2021/04/18 04:19:13;;;;;;;59.42;43.15;;;;;;;;;;4974271;28;20051;-56
2021/04/18 04:21:39;;;;;;;42.03;30.33;;;;;;;;;;4973992;28;20038;-55
2021/04/18 04:24:06;;;;;;;53.58;36.70;;;;;;;;;;4974245;28;20027;-56
2021/04/18 04:26:32;;;;;;;46.78;31.67;;;;;;;;;;4973925;28;20114;-55
2021/04/18 04:28:58;;;;;;;37.60;29.92;;;;;;;;;;4974097;28;20058;-55
2021/04/18 04:31:24;;;;;;;36.47;28.25;;;;;;;;;;4972690;28;20054;-56
2021/04/18 04:33:50;;;;;;;39.97;29.13;;;;;;;;;;4974103;28;20027;-56
2021/04/18 04:36:16;;;;;;;34.88;27.33;;;;;;;;;;4974276;28;20019;-56
2021/04/18 04:38:43;;;;;;;36.00;29.23;;;;;;;;;;4974133;28;20100;-54
2021/04/18 04:41:09;;;;;;;39.67;30.88;;;;;;;;;;4974104;28;20019;-55
2021/04/18 04:43:35;;;;;;;37.10;30.45;;;;;;;;;;4973925;28;20159;-55
2021/04/18 04:46:01;;;;;;;36.25;28.73;;;;;;;;;;4974204;28;20023;-56
2021/04/18 04:48:29;;;;;;;38.42;28.92;;;;;;;;;;4978016;28;20031;-55
2021/04/18 04:50:55;;;;;;;38.58;29.50;;;;;;;;;;4977809;28;20019;-55
2021/04/18 04:53:21;;;;;;;37.92;29.50;;;;;;;;;;4978167;28;20110;-54
2021/04/18 04:55:49;;;;;;;39.40;29.90;;;;;;;;;;4978731;28;20105;-53
2021/04/18 04:58:16;;;;;;;36.60;28.85;;;;;;;;;;4978688;28;20071;-55
2021/04/18 05:00:42;;;;;;;37.28;28.40;;;;;;;;;;4978395;28;20109;-55
2021/04/18 05:03:09;;;;;;;38.90;30.60;;;;;;;;;;4977982;28;20026;-55
2021/04/18 05:05:35;;;;;;;40.40;31.52;;;;;;;;;;4977826;28;20372;-55
2021/04/18 05:08:01;;;;;;;39.33;31.35;;;;;;;;;;4977884;28;20077;-55
2021/04/18 05:10:27;;;;;;;35.38;28.63;;;;;;;;;;4977551;28;20086;-55
2021/04/18 05:12:53;;;;;;;41.03;29.83;;;;;;;;;;4977445;28;20368;-55
2021/04/18 05:15:23;;;;;;;38.08;31.30;;;;;;;;;;4977343;28;20455;-55
2021/04/18 05:17:52;;;;;;;36.42;29.42;;;;;;;;;;4977549;28;20031;-52
2021/04/18 05:20:19;;;;;;;38.25;29.30;;;;;;;;;;4977362;28;20023;-55
2021/04/18 05:22:45;;;;;;;43.75;29.98;;;;;;;;;;4977241;28;20395;-50
2021/04/18 05:25:12;;;;;;;36.38;29.35;;;;;;;;;;4977333;28;20034;-54
2021/04/18 05:27:38;;;;;;;36.30;28.05;;;;;;;;;;4977368;28;20027;-54
2021/04/18 05:30:05;;;;;;;35.38;28.15;;;;;;;;;;4977203;28;20151;-54
2021/04/18 05:32:32;;;;;;;35.60;28.00;;;;;;;;;;4977164;28;20041;-52
2021/04/18 05:35:01;;;;;;;37.42;29.90;;;;;;;;;;4977194;28;20451;-53
2021/04/18 05:37:27;;;;;;;37.50;28.90;;;;;;;;;;4977042;28;20549;-54
2021/04/18 05:39:53;;;;;;;33.60;27.63;;;;;;;;;;4975610;28;20027;-51
2021/04/18 05:42:20;;;;;;;36.88;29.55;;;;;;;;;;4977025;28;20033;-52
2021/04/18 05:44:46;;;;;;;35.47;27.90;;;;;;;;;;4976967;28;20098;-54
2021/04/18 05:47:12;;;;;;;35.38;28.95;;;;;;;;;;4977223;28;20023;-55
2021/04/18 05:49:38;;;;;;;38.65;30.60;;;;;;;;;;4976931;28;20467;-53
2021/04/18 05:52:04;;;;;;;40.17;29.92;;;;;;;;;;4976302;28;20057;-55
2021/04/18 05:54:30;;;;;;;36.22;27.23;;;;;;;;;;4976723;28;20123;-53
2021/04/18 05:56:56;;;;;;;38.00;29.25;;;;;;;;;;4976516;28;20085;-53
2021/04/18 05:59:22;;;;;;;36.58;29.08;;;;;;;;;;4976733;28;20483;-54
2021/04/18 06:01:48;;;;;;;42.13;30.02;;;;;;;;;;4976874;28;20113;-55
2021/04/18 06:04:15;;;;;;;41.25;29.67;;;;;;;;;;4976790;28;20031;-53
2021/04/18 06:06:41;;;;;;;41.28;31.27;;;;;;;;;;4976602;28;20023;-56
2021/04/18 06:09:07;;;;;;;43.53;30.55;;;;;;;;;;4976659;28;20070;-55
2021/04/18 06:11:33;;;;;;;48.95;33.42;;;;;;;;;;4976312;28;20044;-55
2021/04/18 06:13:59;;;;;;;47.53;32.05;;;;;;;;;;4976314;28;20439;-55
2021/04/18 06:16:27;;;;;;;38.67;28.70;;;;;;;;;;4976552;28;20066;-56
2021/04/18 06:18:53;;;;;;;43.28;30.08;;;;;;;;;;4976353;28;20018;-55
2021/04/18 06:21:19;;;;;;;41.92;30.08;;;;;;;;;;4976165;28;20070;-52
2021/04/18 06:23:45;;;;;;;48.58;33.88;;;;;;;;;;4958893;28;20085;-56
2021/04/18 06:26:12;;;;;;;52.70;34.97;;;;;;;;;;4976241;28;20074;-55
2021/04/18 06:28:39;;;;;;;52.13;35.33;;;;;;;;;;4976032;28;20031;-55
2021/04/18 06:31:05;;;;;;;69.15;48.67;;;;;;;;;;4974874;28;20023;-56
2021/04/18 06:33:31;;;;;;;59.10;42.50;;;;;;;;;;4976217;28;20023;-54
2021/04/18 06:35:57;;;;;;;42.03;30.77;;;;;;;;;;4959043;28;20426;-54
2021/04/18 06:38:23;;;;;;;44.00;31.55;;;;;;;;;;4976064;28;20033;-55
2021/04/18 06:40:53;;;;;;;52.65;36.53;;;;;;;;;;4975851;28;20022;-54
2021/04/18 06:43:20;;;;;;;61.35;41.28;;;;;;;;;;4976084;28;20383;-54
2021/04/18 06:45:49;;;;;;;108.63;72.53;;;;;;;;;;4976068;28;20019;-54
2021/04/18 06:48:15;;;;;;;73.32;50.10;;;;;;;;;;4975926;28;20360;-55
2021/04/18 06:50:41;;;;;;;60.05;42.15;;;;;;;;;;4975714;28;20022;-55
2021/04/18 06:53:10;;;;;;;59.53;38.53;;;;;;;;;;4975248;28;20185;-56
2021/04/18 06:55:36;;;;;;;56.00;38.95;;;;;;;;;;4975636;28;20055;-53
2021/04/18 06:58:02;;;;;;;64.65;44.10;;;;;;;;;;4975464;28;20460;-55
2021/04/18 07:00:28;;;;;;;74.03;48.38;;;;;;;;;;4975687;28;20026;-53
2021/04/18 07:03:08;;;;;;;45.03;32.53;;;;;;;;;;4975709;28;20031;-55
2021/04/18 07:05:40;;;;;;;50.25;34.55;;;;;;;;;;4975518;28;20027;-54
2021/04/18 07:08:18;;;;;;;48.20;33.00;;;;;;;;;;4975383;28;20105;-54
2021/04/18 07:10:44;;;;;;;54.72;34.38;;;;;;;;;;4974820;28;20555;-55
2021/04/18 07:13:11;;;;;;;60.38;37.08;;;;;;;;;;4975255;28;20563;-56
2021/04/18 07:15:42;;;;;;;48.05;31.00;;;;;;;;;;4975307;28;20110;-55
2021/04/18 07:18:09;;;;;;;58.17;37.63;;;;;;;;;;4975096;28;20485;-55
2021/04/18 07:20:51;;;;;;;57.85;37.55;;;;;;;;;;4975049;28;20150;-57
2021/04/18 07:23:30;;;;;;;46.75;32.38;;;;;;;;;;4975261;28;20159;-55
2021/04/18 07:25:57;;;;;;;46.75;31.70;;;;;;;;;;4975389;28;20031;-56
2021/04/18 07:28:27;;;;;;;44.17;30.88;;;;;;;;;;4975236;28;20387;-55
2021/04/18 07:30:55;;;;;;;47.17;32.00;;;;;;;;;;4975046;28;20031;-55
2021/04/18 07:33:22;;;;;;;44.35;29.83;;;;;;;;;;4974900;28;20495;-55
2021/04/18 07:35:49;;;;;;;40.50;29.02;;;;;;;;;;4974864;28;20026;-56
2021/04/18 07:38:15;;;;;;;46.10;31.48;;;;;;;;;;4975109;28;20031;-54
2021/04/18 07:40:41;;;;;;;43.17;31.30;;;;;;;;;;4974829;28;20098;-55
2021/04/18 07:43:08;;;;;;;45.90;31.27;;;;;;;;;;4974812;28;20023;-55
2021/04/18 07:45:38;;;;;;;47.83;33.33;;;;;;;;;;4974844;28;20039;-55
2021/04/18 07:48:04;;;;;;;43.50;30.05;;;;;;;;;;4974669;28;20023;-54
2021/04/18 07:50:30;;;;;;;49.80;33.75;;;;;;;;;;4974855;28;20031;-55
2021/04/18 07:52:57;;;;;;;45.63;31.33;;;;;;;;;;4974173;28;20387;-52
2021/04/18 07:55:23;;;;;;;60.90;38.33;;;;;;;;;;4974680;28;20023;-57
2021/04/18 07:57:50;;;;;;;80.75;48.22;;;;;;;;;;4974550;28;20037;-54
2021/04/18 08:00:17;;;;;;;37.03;26.00;;;;;;;;;;4974448;28;20023;-56
2021/04/18 08:02:48;;;;;;;33.78;23.23;;;;;;;;;;4974492;28;20085;-56
2021/04/18 08:05:14;;;;;;;44.83;29.10;;;;;;;;;;4974476;28;20471;-56
2021/04/18 08:08:12;;;;;;;50.75;31.23;;;;;;;;;;4957292;28;20027;-56
2021/04/18 08:10:38;;;;;;;36.08;24.40;;;;;;;;;;4881868;29;20505;-56
2021/04/18 08:13:21;;;;;;;57.97;36.42;;;;;;;;;;4885360;29;20044;-56
2021/04/18 08:15:47;;;;;;;47.97;31.90;;;;;;;;;;4881750;29;20037;-54
2021/04/18 08:18:16;;;;;;;48.90;31.58;;;;;;;;;;4886424;29;20032;-52
2021/04/18 08:20:44;;;;;;;42.15;24.30;;;;;;;;;;4882813;29;20044;-56
2021/04/18 08:23:15;;;;;;;28.13;18.02;;;;;;;;;;4888495;29;20036;-56
2021/04/18 08:26:00;;;;;;;39.70;26.52;;;;;;;;;;4888278;29;20037;-55
2021/04/18 08:28:26;;;;;;;26.27;16.27;;;;;;;;;;4860512;29;20151;-54
2021/04/18 08:31:09;;;;;;;50.65;28.50;;;;;;;;;;4855025;29;20033;-50
2021/04/18 08:33:38;;;;;;;29.00;18.25;;;;;;;;;;4855434;29;20057;-53
2021/04/18 08:36:24;;;;;;;31.23;19.13;;;;;;;;;;4855343;29;20672;-52
2021/04/18 08:39:10;;;;;;;31.95;19.65;;;;;;;;;;4854969;29;20521;-50
2021/04/18 08:41:39;;;;;;;45.38;27.10;;;;;;;;;;4844921;29;21150;-51
2021/04/18 08:44:15;;;;;;;25.95;15.45;;;;;;;;;;4854998;29;20043;-52
2021/04/18 08:46:41;;;;;;;22.63;16.30;;;;;;;;;;4893177;28;20045;-51
2021/04/18 08:49:07;;;;;;;16.92;11.57;;;;;;;;;;4965603;28;20034;-51
2021/04/18 08:51:33;;;;;;;20.27;14.30;;;;;;;;;;4965256;28;20117;-50
2021/04/18 08:54:00;;;;;;;278.45;170.02;;;;;;;;;;4965404;28;20030;-50
2021/04/18 08:56:45;;;;;;;17.38;11.98;;;;;;;;;;4965707;28;20027;-53
2021/04/18 08:59:15;;;;;;;39.25;25.25;;;;;;;;;;4965315;28;20034;-51
2021/04/18 09:02:08;;;;;;;34.22;21.35;;;;;;;;;;4951815;28;20041;-54
2021/04/18 09:04:42;;;;;;;32.13;19.88;;;;;;;;;;4962136;28;20042;-52
2021/04/18 09:07:09;;;;;;;59.38;33.08;;;;;;;;;;4965649;28;20118;-54
2021/04/18 09:09:36;;;;;;;39.80;22.40;;;;;;;;;;4965804;28;20122;-49
2021/04/18 09:12:03;;;;;;;41.63;24.17;;;;;;;;;;4965331;28;20101;-52
2021/04/18 09:14:30;;;;;;;47.50;27.02;;;;;;;;;;4995513;23;20500;-52
2021/04/18 09:17:15;;;;;;;28.95;17.30;;;;;;;;;;4935045;28;20039;-51
2021/04/18 09:19:45;;;;;;;38.00;21.17;;;;;;;;;;4945806;28;20062;-52
2021/04/18 09:22:16;;;;;;;27.42;15.75;;;;;;;;;;4945134;28;20031;-51
2021/04/18 09:24:43;;;;;;;27.50;16.23;;;;;;;;;;4945449;28;20023;-52
2021/04/18 09:27:16;;;;;;;21.85;15.65;;;;;;;;;;4945456;28;20031;-52
2021/04/18 09:29:48;;;;;;;12.95;9.05;;;;;;;;;;4946445;28;20024;-49
2021/04/18 09:32:15;;;;;;;20.42;12.10;;;;;;;;;;4945091;28;20417;-51
2021/04/18 09:34:42;;;;;;;16.63;11.15;;;;;;;;;;4945142;28;20031;-52
2021/04/18 09:37:11;;;;;;;13.80;9.30;;;;;;;;;;4945787;28;20038;-53
2021/04/18 09:39:38;;;;;;;10.98;8.25;;;;;;;;;;4945921;28;20185;-52
2021/04/18 09:42:05;;;;;;;26.08;11.45;;;;;;;;;;4945040;28;20802;-53
2021/04/18 09:44:33;;;;;;;11.40;9.32;;;;;;;;;;4945324;28;20037;-53
2021/04/18 09:47:05;;;;;;;14.07;10.07;;;;;;;;;;4945174;28;20118;-51
2021/04/18 09:49:44;;;;;;;22.33;16.33;;;;;;;;;;4945806;28;20419;-50
2021/04/18 09:52:10;;;;;;;12.38;9.13;;;;;;;;;;4944965;28;20047;-53
2021/04/18 09:54:37;;;;;;;15.45;12.05;;;;;;;;;;4946001;28;20162;-53
2021/04/18 09:57:16;;;;;;;16.05;11.88;;;;;;;;;;4945168;28;20118;-52
2021/04/18 09:59:42;;;;;;;16.00;11.07;;;;;;;;;;4945316;28;20023;-51
2021/04/18 10:02:16;;;;;;;21.13;12.43;;;;;;;;;;4945528;28;20031;-50
2021/04/18 10:04:43;;;;;;;18.77;12.48;;;;;;;;;;4945579;28;20037;-50
2021/04/18 10:07:26;;;;;;;14.35;10.38;;;;;;;;;;4945035;28;20099;-50
2021/04/18 10:09:52;;;;;;;14.73;9.73;;;;;;;;;;4945412;28;20054;-52
2021/04/18 10:12:19;;;;;;;15.23;9.35;;;;;;;;;;4944451;28;20118;-51
2021/04/18 10:14:45;;;;;;;32.50;15.80;;;;;;;;;;4931483;28;20561;-52
2021/04/18 10:17:11;;;;;;;22.92;14.18;;;;;;;;;;4944581;28;20573;-52
2021/04/18 10:20:04;;;;;;;21.15;12.60;;;;;;;;;;4945295;28;20027;-51
2021/04/18 10:22:30;;;;;;;8.57;6.40;;;;;;;;;;4940854;28;20054;-52
2021/04/18 10:24:57;;;;;;;53.33;33.28;;;;;;;;;;4944428;28;20077;-52
2021/04/18 10:27:28;;;;;;;17.88;13.63;;;;;;;;;;4944750;28;20170;-49
2021/04/18 10:29:54;;;;;;;10.00;7.18;;;;;;;;;;4944074;28;20035;-51
2021/04/18 10:32:21;;;;;;;10.50;8.80;;;;;;;;;;4944710;28;20082;-50
2021/04/18 10:34:48;;;;;;;11.77;7.80;;;;;;;;;;4944154;28;20027;-50
2021/04/18 10:37:14;;;;;;;8.48;6.53;;;;;;;;;;4945267;28;20038;-54
2021/04/18 10:39:40;;;;;;;16.73;12.63;;;;;;;;;;4944292;28;20038;-52
2021/04/18 10:42:07;;;;;;;15.93;11.30;;;;;;;;;;4944499;28;20023;-51
2021/04/18 10:44:33;;;;;;;41.85;26.67;;;;;;;;;;4942980;28;20126;-52
2021/04/18 10:47:01;;;;;;;18.45;11.45;;;;;;;;;;4944140;28;20409;-51
2021/04/18 10:49:27;;;;;;;29.25;18.15;;;;;;;;;;4945100;28;20827;-52
2021/04/18 10:51:54;;;;;;;9.75;7.30;;;;;;;;;;4944045;28;21010;-52
2021/04/18 10:54:20;;;;;;;9.88;7.32;;;;;;;;;;4944464;28;20042;-52
2021/04/18 10:56:48;;;;;;;18.70;12.88;;;;;;;;;;4930142;28;21696;-51
2021/04/18 10:59:14;;;;;;;19.92;13.02;;;;;;;;;;4931316;28;21187;-50
2021/04/18 11:01:40;;;;;;;21.40;14.07;;;;;;;;;;4943777;28;20587;-49
2021/04/18 11:04:07;;;;;;;16.88;11.23;;;;;;;;;;4943656;28;20034;-52
2021/04/18 11:06:33;;;;;;;10.80;7.53;;;;;;;;;;4944406;28;20034;-51
2021/04/18 11:09:01;;;;;;;12.70;8.10;;;;;;;;;;4944026;28;20341;-50
2021/04/18 11:11:27;;;;;;;17.50;9.77;;;;;;;;;;4944008;28;20477;-50
2021/04/18 11:13:54;;;;;;;18.08;12.98;;;;;;;;;;4943193;28;20799;-50
2021/04/18 11:16:20;;;;;;;19.92;11.18;;;;;;;;;;4944055;28;20078;-50
2021/04/18 11:18:46;;;;;;;41.85;21.75;;;;;;;;;;4943595;28;20035;-52
2021/04/18 11:21:12;;;;;;;11.02;7.80;;;;;;;;;;4943911;28;20019;-51
2021/04/18 11:23:38;;;;;;;22.15;12.52;;;;;;;;;;4943320;28;20665;-49
2021/04/18 11:26:07;;;;;;;20.17;12.43;;;;;;;;;;4943600;28;20038;-51
2021/04/18 11:28:33;;;;;;;87.85;50.92;;;;;;;;;;4943193;28;20409;-51
2021/04/18 11:30:59;;;;;;;33.35;22.38;;;;;;;;;;4944197;28;20045;-51
2021/04/18 11:33:25;;;;;;;14.85;10.43;;;;;;;;;;4929660;28;20053;-54
2021/04/18 11:35:52;;;;;;;11.93;9.00;;;;;;;;;;4943704;28;20092;-54
2021/04/18 11:38:18;;;;;;;27.60;13.73;;;;;;;;;;4943884;28;20027;-54
2021/04/18 11:40:44;;;;;;;12.77;8.45;;;;;;;;;;4942915;28;20035;-52
2021/04/18 11:43:10;;;;;;;15.88;10.57;;;;;;;;;;4943089;28;20210;-52
2021/04/18 11:45:36;;;;;;;13.10;9.45;;;;;;;;;;4943421;28;20185;-52
2021/04/18 11:48:03;;;;;;;17.15;11.13;;;;;;;;;;4943407;28;20467;-52
2021/04/18 11:50:29;;;;;;;17.35;11.77;;;;;;;;;;4943007;28;20039;-52
2021/04/18 11:52:55;;;;;;;27.90;17.30;;;;;;;;;;4943254;28;20474;-53
2021/04/18 11:55:25;;;;;;;20.45;15.20;;;;;;;;;;4943572;28;20087;-53
2021/04/18 11:57:51;;;;;;;18.20;12.35;;;;;;;;;;4943274;28;20023;-53
2021/04/18 12:00:18;;;;;;;30.10;18.17;;;;;;;;;;4943231;28;20236;-53
2021/04/18 12:02:44;;;;;;;55.90;27.15;;;;;;;;;;4942909;28;20023;-54
2021/04/18 12:05:10;;;;;;;93.72;44.15;;;;;;;;;;4943105;28;20175;-52
2021/04/18 12:07:36;;;;;;;22.38;14.18;;;;;;;;;;4942790;28;20059;-53
2021/04/18 12:10:04;;;;;;;29.17;18.33;;;;;;;;;;4942976;28;20031;-53
2021/04/18 12:12:30;;;;;;;17.25;12.32;;;;;;;;;;4936083;28;20458;-50
2021/04/18 12:14:56;;;;;;;10.48;8.40;;;;;;;;;;4942649;28;21085;-53
2021/04/18 12:17:22;;;;;;;13.15;8.93;;;;;;;;;;4943261;28;20035;-54
2021/04/18 12:19:48;;;;;;;16.90;10.32;;;;;;;;;;4943027;28;20031;-53
2021/04/18 12:22:14;;;;;;;7.25;6.07;;;;;;;;;;4943490;28;20142;-51
2021/04/18 12:24:42;;;;;;;9.40;7.50;;;;;;;;;;4942351;28;20038;-53
2021/04/18 12:27:08;;;;;;;7.50;6.35;;;;;;;;;;4943271;28;20038;-54
2021/04/18 12:29:34;;;;;;;9.73;7.78;;;;;;;;;;4942823;28;20027;-53
2021/04/18 12:32:00;;;;;;;14.88;11.50;;;;;;;;;;4942858;28;20086;-54
2021/04/18 12:34:28;;;;;;;14.20;9.02;;;;;;;;;;4943450;28;20781;-53
2021/04/18 12:36:54;;;;;;;12.43;8.88;;;;;;;;;;4942540;28;20046;-54
2021/04/18 12:39:20;;;;;;;8.65;6.68;;;;;;;;;;4942881;28;20870;-52
2021/04/18 12:41:47;;;;;;;7.38;6.13;;;;;;;;;;4942937;28;20790;-52
2021/04/18 12:44:15;;;;;;;7.88;6.22;;;;;;;;;;4943032;28;20031;-52
2021/04/18 12:46:41;;;;;;;7.35;6.50;;;;;;;;;;4942889;28;20019;-54
2021/04/18 12:49:08;;;;;;;7.65;6.57;;;;;;;;;;4943183;28;20027;-54
2021/04/18 12:51:34;;;;;;;6.10;5.50;;;;;;;;;;4942404;28;21285;-53
2021/04/18 12:54:02;;;;;;;7.22;6.07;;;;;;;;;;4942725;28;20030;-53
2021/04/18 12:56:31;;;;;;;10.88;7.25;;;;;;;;;;4942303;28;20029;-54
2021/04/18 12:58:57;;;;;;;10.75;7.97;;;;;;;;;;4942891;28;20027;-52
2021/04/18 13:01:23;;;;;;;7.20;5.95;;;;;;;;;;4942328;28;20023;-54
2021/04/18 13:03:49;;;;;;;7.88;6.65;;;;;;;;;;4942705;28;20145;-58
2021/04/18 13:06:15;;;;;;;19.67;13.80;;;;;;;;;;4942445;28;20034;-54
2021/04/18 13:08:41;;;;;;;10.45;8.13;;;;;;;;;;4944974;28;20050;-54
2021/04/18 13:11:07;;;;;;;8.30;6.93;;;;;;;;;;4946216;28;20156;-54
2021/04/18 13:13:34;;;;;;;9.30;7.32;;;;;;;;;;4928627;28;20051;-54
2021/04/18 13:16:00;;;;;;;10.15;7.20;;;;;;;;;;4945615;28;20074;-53
2021/04/18 13:18:26;;;;;;;9.55;7.68;;;;;;;;;;4945227;28;20035;-51
2021/04/18 13:20:53;;;;;;;9.38;7.43;;;;;;;;;;4945324;28;20027;-54
2021/04/18 13:23:19;;;;;;;9.88;7.75;;;;;;;;;;4945746;28;20394;-52
2021/04/18 13:25:45;;;;;;;9.57;7.90;;;;;;;;;;4946559;28;20023;-51
2021/04/18 13:28:11;;;;;;;9.85;8.85;;;;;;;;;;4945434;28;20031;-52
2021/04/18 13:30:37;;;;;;;10.63;7.95;;;;;;;;;;4945304;28;20066;-52
2021/04/18 13:33:05;;;;;;;13.48;9.35;;;;;;;;;;4945894;28;20031;-57
2021/04/18 13:35:32;;;;;;;12.50;9.25;;;;;;;;;;4945727;28;20035;-53
2021/04/18 13:37:58;;;;;;;16.33;10.65;;;;;;;;;;4946072;28;20027;-49
2021/04/18 13:40:25;;;;;;;19.67;12.38;;;;;;;;;;4945198;28;20023;-53
2021/04/18 13:42:53;;;;;;;18.42;12.80;;;;;;;;;;4946258;28;20034;-53
2021/04/18 13:45:20;;;;;;;15.50;12.20;;;;;;;;;;4931625;28;21846;-51
2021/04/18 13:47:49;;;;;;;16.58;11.63;;;;;;;;;;4946540;28;21401;-53
2021/04/18 13:50:15;;;;;;;29.25;18.08;;;;;;;;;;4946199;28;20093;-51
2021/04/18 13:52:43;;;;;;;30.08;18.98;;;;;;;;;;4933106;28;20089;-54
2021/04/18 13:55:11;;;;;;;21.42;13.82;;;;;;;;;;4945165;28;20129;-52
2021/04/18 13:57:37;;;;;;;14.95;10.75;;;;;;;;;;4945732;28;20090;-54
2021/04/18 14:00:07;;;;;;;14.00;9.70;;;;;;;;;;4945407;28;20696;-53
2021/04/18 14:02:33;;;;;;;14.30;10.57;;;;;;;;;;4945533;28;20034;-53
2021/04/18 14:04:59;;;;;;;20.50;14.45;;;;;;;;;;4944921;28;20042;-51
2021/04/18 14:07:25;;;;;;;15.68;10.85;;;;;;;;;;4945001;28;20023;-53
2021/04/18 14:09:52;;;;;;;8.13;7.20;;;;;;;;;;4945817;28;20129;-52
2021/04/18 14:12:18;;;;;;;12.65;8.80;;;;;;;;;;4944750;28;20023;-51
2021/04/18 14:14:44;;;;;;;16.88;11.18;;;;;;;;;;4944648;28;20515;-53
2021/04/18 14:17:10;;;;;;;15.32;11.15;;;;;;;;;;4945118;28;20046;-53
2021/04/18 14:19:36;;;;;;;20.13;12.77;;;;;;;;;;4945140;28;20026;-52